sensor_id;sensor_type;location;lat;lon;timestamp;temperature;humidity
21353;DHT22;10834;52.268;6.770;2022-08-19T00:02:10;23.20;77.40
21353;DHT22;10834;52.268;6.770;2022-08-19T00:04:56;23.20;77.50
21353;DHT22;10834;52.268;6.770;2022-08-19T00:07:42;23.20;77.50
21353;DHT22;10834;52.268;6.770;2022-08-19T00:10:29;23.20;77.40
21353;DHT22;10834;52.268;6.770;2022-08-19T00:13:15;23.20;77.40
21353;DHT22;10834;52.268;6.770;2022-08-19T00:16:02;23.20;77.50
21353;DHT22;10834;52.268;6.770;2022-08-19T00:18:48;23.10;77.40
21353;DHT22;10834;52.268;6.770;2022-08-19T00:21:34;23.10;77.40
21353;DHT22;10834;52.268;6.770;2022-08-19T00:24:25;23.10;77.40
21353;DHT22;10834;52.268;6.770;2022-08-19T00:27:11;23.10;77.40
21353;DHT22;10834;52.268;6.770;2022-08-19T00:29:57;23.10;77.40
21353;DHT22;10834;52.268;6.770;2022-08-19T00:32:44;23.10;77.40
21353;DHT22;10834;52.268;6.770;2022-08-19T00:35:30;23.10;77.40
21353;DHT22;10834;52.268;6.770;2022-08-19T00:38:16;23.10;77.30
21353;DHT22;10834;52.268;6.770;2022-08-19T00:41:03;23.00;77.20
21353;DHT22;10834;52.268;6.770;2022-08-19T00:44:09;23.10;77.30
21353;DHT22;10834;52.268;6.770;2022-08-19T00:46:57;23.10;77.30
21353;DHT22;10834;52.268;6.770;2022-08-19T00:49:48;23.00;77.20
21353;DHT22;10834;52.268;6.770;2022-08-19T00:52:42;23.00;77.20
21353;DHT22;10834;52.268;6.770;2022-08-19T00:55:32;23.00;77.20
21353;DHT22;10834;52.268;6.770;2022-08-19T00:58:21;23.00;77.20
21353;DHT22;10834;52.268;6.770;2022-08-19T01:01:07;22.90;77.20
21353;DHT22;10834;52.268;6.770;2022-08-19T01:03:54;23.00;77.20
21353;DHT22;10834;52.268;6.770;2022-08-19T01:06:40;22.90;77.20
21353;DHT22;10834;52.268;6.770;2022-08-19T01:09:29;22.90;77.20
21353;DHT22;10834;52.268;6.770;2022-08-19T01:12:16;22.90;77.20
21353;DHT22;10834;52.268;6.770;2022-08-19T01:15:06;22.90;77.20
21353;DHT22;10834;52.268;6.770;2022-08-19T01:17:53;22.90;77.20
21353;DHT22;10834;52.268;6.770;2022-08-19T01:20:41;22.90;77.20
21353;DHT22;10834;52.268;6.770;2022-08-19T01:23:28;22.90;77.20
21353;DHT22;10834;52.268;6.770;2022-08-19T01:26:28;22.90;77.20
21353;DHT22;10834;52.268;6.770;2022-08-19T01:29:14;22.90;77.20
21353;DHT22;10834;52.268;6.770;2022-08-19T01:32:01;22.90;77.30
21353;DHT22;10834;52.268;6.770;2022-08-19T01:34:47;22.80;77.20
21353;DHT22;10834;52.268;6.770;2022-08-19T01:37:49;22.80;77.20
21353;DHT22;10834;52.268;6.770;2022-08-19T01:40:37;22.80;77.30
21353;DHT22;10834;52.268;6.770;2022-08-19T01:43:24;22.80;77.30
21353;DHT22;10834;52.268;6.770;2022-08-19T01:46:11;22.80;77.30
21353;DHT22;10834;52.268;6.770;2022-08-19T01:48:58;22.80;77.30
21353;DHT22;10834;52.268;6.770;2022-08-19T01:51:44;22.80;77.30
21353;DHT22;10834;52.268;6.770;2022-08-19T01:54:30;22.80;77.40
21353;DHT22;10834;52.268;6.770;2022-08-19T01:57:17;22.80;77.40
21353;DHT22;10834;52.268;6.770;2022-08-19T02:00:08;22.80;77.40
21353;DHT22;10834;52.268;6.770;2022-08-19T02:02:55;22.70;77.40
21353;DHT22;10834;52.268;6.770;2022-08-19T02:05:41;22.70;77.40
21353;DHT22;10834;52.268;6.770;2022-08-19T02:08:29;22.70;77.40
21353;DHT22;10834;52.268;6.770;2022-08-19T02:11:27;22.70;77.40
21353;DHT22;10834;52.268;6.770;2022-08-19T02:14:13;22.70;77.40
21353;DHT22;10834;52.268;6.770;2022-08-19T02:16:59;22.60;77.40
21353;DHT22;10834;52.268;6.770;2022-08-19T02:19:45;22.60;77.40
21353;DHT22;10834;52.268;6.770;2022-08-19T02:22:32;22.60;77.40
21353;DHT22;10834;52.268;6.770;2022-08-19T02:25:18;22.60;77.40
21353;DHT22;10834;52.268;6.770;2022-08-19T02:28:04;22.60;77.40
21353;DHT22;10834;52.268;6.770;2022-08-19T02:30:50;22.60;77.40
21353;DHT22;10834;52.268;6.770;2022-08-19T02:33:36;22.60;77.40
21353;DHT22;10834;52.268;6.770;2022-08-19T02:36:24;22.60;77.40
21353;DHT22;10834;52.268;6.770;2022-08-19T02:39:10;22.60;77.40
21353;DHT22;10834;52.268;6.770;2022-08-19T02:41:56;22.60;77.40
21353;DHT22;10834;52.268;6.770;2022-08-19T02:44:45;22.60;77.40
21353;DHT22;10834;52.268;6.770;2022-08-19T02:47:31;22.60;77.30
21353;DHT22;10834;52.268;6.770;2022-08-19T02:50:17;22.60;77.40
21353;DHT22;10834;52.268;6.770;2022-08-19T02:53:04;22.60;77.40
21353;DHT22;10834;52.268;6.770;2022-08-19T02:55:51;22.50;77.30
21353;DHT22;10834;52.268;6.770;2022-08-19T02:58:38;22.60;77.40
21353;DHT22;10834;52.268;6.770;2022-08-19T03:01:30;22.50;77.30
21353;DHT22;10834;52.268;6.770;2022-08-19T03:04:16;22.50;77.40
21353;DHT22;10834;52.268;6.770;2022-08-19T03:07:03;22.50;77.40
21353;DHT22;10834;52.268;6.770;2022-08-19T03:09:49;22.50;77.40
21353;DHT22;10834;52.268;6.770;2022-08-19T03:12:37;22.50;77.40
21353;DHT22;10834;52.268;6.770;2022-08-19T03:15:23;22.50;77.40
21353;DHT22;10834;52.268;6.770;2022-08-19T03:18:10;22.50;77.40
21353;DHT22;10834;52.268;6.770;2022-08-19T03:20:57;22.50;78.00
21353;DHT22;10834;52.268;6.770;2022-08-19T03:23:43;22.40;77.40
21353;DHT22;10834;52.268;6.770;2022-08-19T03:26:30;22.40;77.40
21353;DHT22;10834;52.268;6.770;2022-08-19T03:29:16;22.40;77.40
21353;DHT22;10834;52.268;6.770;2022-08-19T03:32:04;22.40;77.40
21353;DHT22;10834;52.268;6.770;2022-08-19T03:34:51;22.40;77.30
21353;DHT22;10834;52.268;6.770;2022-08-19T03:37:37;22.40;77.40
21353;DHT22;10834;52.268;6.770;2022-08-19T03:40:24;22.40;77.40
21353;DHT22;10834;52.268;6.770;2022-08-19T03:43:10;22.30;77.30
21353;DHT22;10834;52.268;6.770;2022-08-19T03:46:01;22.30;77.30
21353;DHT22;10834;52.268;6.770;2022-08-19T03:48:51;22.30;77.30
21353;DHT22;10834;52.268;6.770;2022-08-19T03:51:41;22.30;77.30
21353;DHT22;10834;52.268;6.770;2022-08-19T03:54:29;22.30;77.30
21353;DHT22;10834;52.268;6.770;2022-08-19T03:57:15;22.30;77.30
21353;DHT22;10834;52.268;6.770;2022-08-19T04:00:01;22.30;77.40
21353;DHT22;10834;52.268;6.770;2022-08-19T04:02:47;22.30;77.40
21353;DHT22;10834;52.268;6.770;2022-08-19T04:05:33;22.30;77.40
21353;DHT22;10834;52.268;6.770;2022-08-19T04:08:20;22.30;77.50
21353;DHT22;10834;52.268;6.770;2022-08-19T04:11:13;22.30;77.50
21353;DHT22;10834;52.268;6.770;2022-08-19T04:14:00;22.30;77.50
21353;DHT22;10834;52.268;6.770;2022-08-19T04:16:48;22.30;77.50
21353;DHT22;10834;52.268;6.770;2022-08-19T04:19:35;22.20;77.40
21353;DHT22;10834;52.268;6.770;2022-08-19T04:22:22;22.20;77.40
21353;DHT22;10834;52.268;6.770;2022-08-19T04:25:08;22.20;77.40
21353;DHT22;10834;52.268;6.770;2022-08-19T04:27:54;22.20;77.50
21353;DHT22;10834;52.268;6.770;2022-08-19T04:30:42;22.20;77.50
21353;DHT22;10834;52.268;6.770;2022-08-19T04:33:28;22.20;77.40
21353;DHT22;10834;52.268;6.770;2022-08-19T04:36:20;22.20;77.50
21353;DHT22;10834;52.268;6.770;2022-08-19T04:39:14;22.20;77.50
21353;DHT22;10834;52.268;6.770;2022-08-19T04:42:01;22.20;77.50
21353;DHT22;10834;52.268;6.770;2022-08-19T04:45:12;22.20;77.50
21353;DHT22;10834;52.268;6.770;2022-08-19T04:47:58;22.20;77.50
21353;DHT22;10834;52.268;6.770;2022-08-19T04:50:47;22.20;77.40
21353;DHT22;10834;52.268;6.770;2022-08-19T04:53:36;22.10;77.30
21353;DHT22;10834;52.268;6.770;2022-08-19T04:56:23;22.10;77.30
21353;DHT22;10834;52.268;6.770;2022-08-19T04:59:11;22.10;77.30
21353;DHT22;10834;52.268;6.770;2022-08-19T05:01:58;22.10;77.30
21353;DHT22;10834;52.268;6.770;2022-08-19T05:04:44;22.10;77.30
21353;DHT22;10834;52.268;6.770;2022-08-19T05:07:30;22.10;77.30
21353;DHT22;10834;52.268;6.770;2022-08-19T05:10:16;22.10;77.30
21353;DHT22;10834;52.268;6.770;2022-08-19T05:13:03;22.10;77.30
21353;DHT22;10834;52.268;6.770;2022-08-19T05:15:57;22.00;77.30
21353;DHT22;10834;52.268;6.770;2022-08-19T05:18:43;22.00;77.30
21353;DHT22;10834;52.268;6.770;2022-08-19T05:21:48;22.00;77.30
21353;DHT22;10834;52.268;6.770;2022-08-19T05:24:53;22.00;77.30
21353;DHT22;10834;52.268;6.770;2022-08-19T05:27:40;22.00;77.30
21353;DHT22;10834;52.268;6.770;2022-08-19T05:30:27;22.00;77.30
21353;DHT22;10834;52.268;6.770;2022-08-19T05:33:13;22.00;77.30
21353;DHT22;10834;52.268;6.770;2022-08-19T05:36:01;22.00;77.30
21353;DHT22;10834;52.268;6.770;2022-08-19T05:38:48;22.00;77.30
21353;DHT22;10834;52.268;6.770;2022-08-19T05:41:35;22.00;77.30
21353;DHT22;10834;52.268;6.770;2022-08-19T05:44:22;22.00;77.30
21353;DHT22;10834;52.268;6.770;2022-08-19T05:47:08;22.00;77.30
21353;DHT22;10834;52.268;6.770;2022-08-19T05:49:54;21.90;77.30
21353;DHT22;10834;52.268;6.770;2022-08-19T05:52:40;21.90;77.30
21353;DHT22;10834;52.268;6.770;2022-08-19T05:55:26;21.90;77.30
21353;DHT22;10834;52.268;6.770;2022-08-19T05:58:13;21.90;77.30
21353;DHT22;10834;52.268;6.770;2022-08-19T06:00:59;21.90;77.30
21353;DHT22;10834;52.268;6.770;2022-08-19T06:03:50;21.90;77.40
21353;DHT22;10834;52.268;6.770;2022-08-19T06:06:36;21.90;77.40
21353;DHT22;10834;52.268;6.770;2022-08-19T06:09:23;21.90;77.50
21353;DHT22;10834;52.268;6.770;2022-08-19T06:12:09;21.90;77.50
21353;DHT22;10834;52.268;6.770;2022-08-19T06:14:55;21.90;77.50
21353;DHT22;10834;52.268;6.770;2022-08-19T06:17:42;21.90;77.50
21353;DHT22;10834;52.268;6.770;2022-08-19T06:20:30;21.90;77.60
21353;DHT22;10834;52.268;6.770;2022-08-19T06:23:18;22.00;77.60
21353;DHT22;10834;52.268;6.770;2022-08-19T06:26:05;22.00;77.60
21353;DHT22;10834;52.268;6.770;2022-08-19T06:28:52;22.00;77.50
21353;DHT22;10834;52.268;6.770;2022-08-19T06:31:45;22.00;77.50
21353;DHT22;10834;52.268;6.770;2022-08-19T06:34:32;22.00;77.50
21353;DHT22;10834;52.268;6.770;2022-08-19T06:37:18;22.10;77.50
21353;DHT22;10834;52.268;6.770;2022-08-19T06:40:05;22.10;77.50
21353;DHT22;10834;52.268;6.770;2022-08-19T06:42:51;22.10;77.50
21353;DHT22;10834;52.268;6.770;2022-08-19T06:45:38;22.10;77.50
21353;DHT22;10834;52.268;6.770;2022-08-19T06:48:24;22.10;77.40
21353;DHT22;10834;52.268;6.770;2022-08-19T06:51:11;22.20;77.50
21353;DHT22;10834;52.268;6.770;2022-08-19T06:53:57;22.10;77.50
21353;DHT22;10834;52.268;6.770;2022-08-19T06:56:43;22.20;77.70
21353;DHT22;10834;52.268;6.770;2022-08-19T06:59:31;22.20;78.00
21353;DHT22;10834;52.268;6.770;2022-08-19T07:02:19;22.20;78.10
21353;DHT22;10834;52.268;6.770;2022-08-19T07:05:06;22.20;78.30
21353;DHT22;10834;52.268;6.770;2022-08-19T07:07:52;22.20;78.40
21353;DHT22;10834;52.268;6.770;2022-08-19T07:10:43;22.20;78.50
21353;DHT22;10834;52.268;6.770;2022-08-19T07:13:30;22.30;78.60
21353;DHT22;10834;52.268;6.770;2022-08-19T07:16:19;22.30;78.70
21353;DHT22;10834;52.268;6.770;2022-08-19T07:19:05;22.30;79.10
21353;DHT22;10834;52.268;6.770;2022-08-19T07:21:51;22.30;80.10
21353;DHT22;10834;52.268;6.770;2022-08-19T07:24:40;22.30;79.50
21353;DHT22;10834;52.268;6.770;2022-08-19T07:27:26;22.40;79.80
21353;DHT22;10834;52.268;6.770;2022-08-19T07:30:12;22.40;80.00
21353;DHT22;10834;52.268;6.770;2022-08-19T07:32:59;22.40;80.10
21353;DHT22;10834;52.268;6.770;2022-08-19T07:35:45;22.50;80.40
21353;DHT22;10834;52.268;6.770;2022-08-19T07:38:32;22.50;80.30
21353;DHT22;10834;52.268;6.770;2022-08-19T07:41:21;22.60;80.30
21353;DHT22;10834;52.268;6.770;2022-08-19T07:44:07;22.60;80.40
21353;DHT22;10834;52.268;6.770;2022-08-19T07:46:56;22.60;80.40
21353;DHT22;10834;52.268;6.770;2022-08-19T07:49:42;22.60;80.40
21353;DHT22;10834;52.268;6.770;2022-08-19T07:52:28;22.70;80.60
21353;DHT22;10834;52.268;6.770;2022-08-19T07:55:17;22.70;80.80
21353;DHT22;10834;52.268;6.770;2022-08-19T07:58:04;22.70;80.80
21353;DHT22;10834;52.268;6.770;2022-08-19T08:00:51;22.80;81.00
21353;DHT22;10834;52.268;6.770;2022-08-19T08:03:37;22.80;81.20
21353;DHT22;10834;52.268;6.770;2022-08-19T08:06:42;22.90;81.50
21353;DHT22;10834;52.268;6.770;2022-08-19T08:09:47;22.90;81.60
21353;DHT22;10834;52.268;6.770;2022-08-19T08:12:38;23.00;81.70
21353;DHT22;10834;52.268;6.770;2022-08-19T08:15:28;23.00;81.80
21353;DHT22;10834;52.268;6.770;2022-08-19T08:18:14;23.10;81.90
21353;DHT22;10834;52.268;6.770;2022-08-19T08:21:00;23.10;82.00
21353;DHT22;10834;52.268;6.770;2022-08-19T08:23:46;23.20;82.10
21353;DHT22;10834;52.268;6.770;2022-08-19T08:26:32;23.20;82.20
21353;DHT22;10834;52.268;6.770;2022-08-19T08:29:18;23.30;82.20
21353;DHT22;10834;52.268;6.770;2022-08-19T08:32:05;23.30;82.10
21353;DHT22;10834;52.268;6.770;2022-08-19T08:34:52;23.40;82.00
21353;DHT22;10834;52.268;6.770;2022-08-19T08:37:39;23.40;81.90
21353;DHT22;10834;52.268;6.770;2022-08-19T08:40:34;23.50;81.80
21353;DHT22;10834;52.268;6.770;2022-08-19T08:43:31;23.50;81.70
21353;DHT22;10834;52.268;6.770;2022-08-19T08:46:25;23.50;81.70
21353;DHT22;10834;52.268;6.770;2022-08-19T08:52:31;23.70;81.30
21353;DHT22;10834;52.268;6.770;2022-08-19T08:55:24;23.70;81.10
21353;DHT22;10834;52.268;6.770;2022-08-19T08:58:41;23.70;80.60
21353;DHT22;10834;52.268;6.770;2022-08-19T09:01:28;23.80;80.40
21353;DHT22;10834;52.268;6.770;2022-08-19T09:04:14;23.80;80.20
21353;DHT22;10834;52.268;6.770;2022-08-19T09:16:21;24.00;79.40
21353;DHT22;10834;52.268;6.770;2022-08-19T09:19:12;24.00;79.20
21353;DHT22;10834;52.268;6.770;2022-08-19T09:21:58;24.10;79.00
21353;DHT22;10834;52.268;6.770;2022-08-19T09:24:46;24.10;78.80
21353;DHT22;10834;52.268;6.770;2022-08-19T09:27:32;24.20;78.70
21353;DHT22;10834;52.268;6.770;2022-08-19T09:30:27;24.20;78.50
21353;DHT22;10834;52.268;6.770;2022-08-19T09:33:14;24.20;78.30
21353;DHT22;10834;52.268;6.770;2022-08-19T09:36:03;24.40;78.20
21353;DHT22;10834;52.268;6.770;2022-08-19T09:38:49;24.40;77.90
21353;DHT22;10834;52.268;6.770;2022-08-19T09:41:35;24.40;77.70
21353;DHT22;10834;52.268;6.770;2022-08-19T09:44:21;24.50;77.40
21353;DHT22;10834;52.268;6.770;2022-08-19T09:47:08;24.60;77.20
21353;DHT22;10834;52.268;6.770;2022-08-19T09:49:55;24.60;76.90
21353;DHT22;10834;52.268;6.770;2022-08-19T09:52:41;24.70;76.80
21353;DHT22;10834;52.268;6.770;2022-08-19T09:55:27;24.70;76.30
21353;DHT22;10834;52.268;6.770;2022-08-19T09:58:13;24.70;75.20
21353;DHT22;10834;52.268;6.770;2022-08-19T10:01:01;24.70;75.00
21353;DHT22;10834;52.268;6.770;2022-08-19T10:03:50;24.80;74.70
21353;DHT22;10834;52.268;6.770;2022-08-19T10:06:39;24.80;74.70
21353;DHT22;10834;52.268;6.770;2022-08-19T10:09:25;24.80;74.50
21353;DHT22;10834;52.268;6.770;2022-08-19T10:12:11;24.90;74.50
21353;DHT22;10834;52.268;6.770;2022-08-19T10:14:58;24.90;74.40
21353;DHT22;10834;52.268;6.770;2022-08-19T10:17:44;24.90;72.90
21353;DHT22;10834;52.268;6.770;2022-08-19T10:20:31;24.90;73.10
21353;DHT22;10834;52.268;6.770;2022-08-19T10:23:18;24.90;72.80
21353;DHT22;10834;52.268;6.770;2022-08-19T10:26:07;24.90;72.60
21353;DHT22;10834;52.268;6.770;2022-08-19T10:28:53;25.00;72.60
21353;DHT22;10834;52.268;6.770;2022-08-19T10:31:39;25.00;72.50
21353;DHT22;10834;52.268;6.770;2022-08-19T10:34:27;25.00;72.30
21353;DHT22;10834;52.268;6.770;2022-08-19T10:37:13;25.10;72.20
21353;DHT22;10834;52.268;6.770;2022-08-19T10:39:59;25.10;72.10
21353;DHT22;10834;52.268;6.770;2022-08-19T10:42:47;25.10;71.90
21353;DHT22;10834;52.268;6.770;2022-08-19T10:45:33;25.10;71.80
21353;DHT22;10834;52.268;6.770;2022-08-19T10:48:19;25.10;71.80
21353;DHT22;10834;52.268;6.770;2022-08-19T10:51:05;25.10;71.80
21353;DHT22;10834;52.268;6.770;2022-08-19T10:54:10;25.10;71.70
21353;DHT22;10834;52.268;6.770;2022-08-19T10:56:56;25.10;71.50
21353;DHT22;10834;52.268;6.770;2022-08-19T10:59:42;25.20;71.40
21353;DHT22;10834;52.268;6.770;2022-08-19T11:02:28;25.20;71.40
21353;DHT22;10834;52.268;6.770;2022-08-19T11:05:15;25.20;71.40
21353;DHT22;10834;52.268;6.770;2022-08-19T11:08:01;25.20;71.40
21353;DHT22;10834;52.268;6.770;2022-08-19T11:10:47;25.20;71.20
21353;DHT22;10834;52.268;6.770;2022-08-19T11:13:36;25.30;71.00
21353;DHT22;10834;52.268;6.770;2022-08-19T11:16:24;25.30;70.80
21353;DHT22;10834;52.268;6.770;2022-08-19T11:19:12;25.30;70.80
21353;DHT22;10834;52.268;6.770;2022-08-19T11:22:00;25.30;70.70
21353;DHT22;10834;52.268;6.770;2022-08-19T11:24:47;25.30;70.60
21353;DHT22;10834;52.268;6.770;2022-08-19T11:27:33;25.30;70.70
21353;DHT22;10834;52.268;6.770;2022-08-19T11:30:22;25.30;70.50
21353;DHT22;10834;52.268;6.770;2022-08-19T11:33:09;25.40;70.70
21353;DHT22;10834;52.268;6.770;2022-08-19T11:35:59;25.40;70.60
21353;DHT22;10834;52.268;6.770;2022-08-19T11:38:47;25.40;70.60
21353;DHT22;10834;52.268;6.770;2022-08-19T11:41:35;25.40;70.50
21353;DHT22;10834;52.268;6.770;2022-08-19T11:44:21;25.50;70.60
21353;DHT22;10834;52.268;6.770;2022-08-19T11:47:07;25.50;70.40
21353;DHT22;10834;52.268;6.770;2022-08-19T11:49:53;25.50;70.40
21353;DHT22;10834;52.268;6.770;2022-08-19T11:52:39;25.50;70.40
21353;DHT22;10834;52.268;6.770;2022-08-19T11:55:25;25.50;70.30
21353;DHT22;10834;52.268;6.770;2022-08-19T11:58:13;25.60;70.30
21353;DHT22;10834;52.268;6.770;2022-08-19T12:00:59;25.60;70.20
21353;DHT22;10834;52.268;6.770;2022-08-19T12:03:47;25.70;70.20
21353;DHT22;10834;52.268;6.770;2022-08-19T12:06:34;25.70;70.20
21353;DHT22;10834;52.268;6.770;2022-08-19T12:09:23;25.80;70.30
21353;DHT22;10834;52.268;6.770;2022-08-19T12:12:09;25.80;70.10
21353;DHT22;10834;52.268;6.770;2022-08-19T12:14:55;25.80;70.00
21353;DHT22;10834;52.268;6.770;2022-08-19T12:17:43;25.90;69.90
21353;DHT22;10834;52.268;6.770;2022-08-19T12:20:30;25.90;69.80
21353;DHT22;10834;52.268;6.770;2022-08-19T12:23:16;25.90;69.60
21353;DHT22;10834;52.268;6.770;2022-08-19T12:26:02;25.90;69.50
21353;DHT22;10834;52.268;6.770;2022-08-19T12:28:48;26.00;69.60
21353;DHT22;10834;52.268;6.770;2022-08-19T12:31:34;26.00;69.30
21353;DHT22;10834;52.268;6.770;2022-08-19T12:34:20;26.00;69.00
21353;DHT22;10834;52.268;6.770;2022-08-19T12:37:07;26.00;68.90
21353;DHT22;10834;52.268;6.770;2022-08-19T12:39:53;26.00;68.80
21353;DHT22;10834;52.268;6.770;2022-08-19T12:42:39;26.00;68.70
21353;DHT22;10834;52.268;6.770;2022-08-19T12:45:29;26.10;68.70
21353;DHT22;10834;52.268;6.770;2022-08-19T12:48:15;26.10;68.70
21353;DHT22;10834;52.268;6.770;2022-08-19T12:51:07;26.10;68.60
21353;DHT22;10834;52.268;6.770;2022-08-19T12:53:53;26.10;68.50
21353;DHT22;10834;52.268;6.770;2022-08-19T12:56:39;26.20;68.50
21353;DHT22;10834;52.268;6.770;2022-08-19T12:59:26;26.20;69.20
21353;DHT22;10834;52.268;6.770;2022-08-19T13:02:13;26.20;68.40
21353;DHT22;10834;52.268;6.770;2022-08-19T13:04:59;26.20;68.30
21353;DHT22;10834;52.268;6.770;2022-08-19T13:07:45;26.20;68.20
21353;DHT22;10834;52.268;6.770;2022-08-19T13:10:34;26.20;68.10
21353;DHT22;10834;52.268;6.770;2022-08-19T13:13:20;26.30;68.10
21353;DHT22;10834;52.268;6.770;2022-08-19T13:16:09;26.20;68.00
21353;DHT22;10834;52.268;6.770;2022-08-19T13:18:57;26.30;68.00
21353;DHT22;10834;52.268;6.770;2022-08-19T13:21:43;26.30;67.90
21353;DHT22;10834;52.268;6.770;2022-08-19T13:24:29;26.30;67.80
21353;DHT22;10834;52.268;6.770;2022-08-19T13:27:15;26.30;67.70
21353;DHT22;10834;52.268;6.770;2022-08-19T13:30:04;26.30;67.40
21353;DHT22;10834;52.268;6.770;2022-08-19T13:33:09;26.30;66.80
21353;DHT22;10834;52.268;6.770;2022-08-19T13:36:01;26.30;66.70
21353;DHT22;10834;52.268;6.770;2022-08-19T13:38:47;26.30;66.40
21353;DHT22;10834;52.268;6.770;2022-08-19T13:41:33;26.30;66.40
21353;DHT22;10834;52.268;6.770;2022-08-19T13:44:20;26.30;66.30
21353;DHT22;10834;52.268;6.770;2022-08-19T13:47:06;26.30;66.20
21353;DHT22;10834;52.268;6.770;2022-08-19T13:49:53;26.40;66.20
21353;DHT22;10834;52.268;6.770;2022-08-19T13:52:40;26.40;66.00
21353;DHT22;10834;52.268;6.770;2022-08-19T13:55:26;26.40;66.00
21353;DHT22;10834;52.268;6.770;2022-08-19T13:58:13;26.40;65.90
21353;DHT22;10834;52.268;6.770;2022-08-19T14:01:00;26.40;65.80
21353;DHT22;10834;52.268;6.770;2022-08-19T14:03:46;26.40;65.70
21353;DHT22;10834;52.268;6.770;2022-08-19T14:06:32;26.40;65.60
21353;DHT22;10834;52.268;6.770;2022-08-19T14:09:18;26.40;65.60
21353;DHT22;10834;52.268;6.770;2022-08-19T14:12:04;26.40;65.60
21353;DHT22;10834;52.268;6.770;2022-08-19T14:14:51;26.40;65.50
21353;DHT22;10834;52.268;6.770;2022-08-19T14:17:41;26.40;65.40
21353;DHT22;10834;52.268;6.770;2022-08-19T14:20:29;26.40;65.40
21353;DHT22;10834;52.268;6.770;2022-08-19T14:23:15;26.40;65.40
21353;DHT22;10834;52.268;6.770;2022-08-19T14:26:09;26.40;65.30
21353;DHT22;10834;52.268;6.770;2022-08-19T14:28:56;26.40;65.30
21353;DHT22;10834;52.268;6.770;2022-08-19T14:31:43;26.40;65.20
21353;DHT22;10834;52.268;6.770;2022-08-19T14:34:30;26.40;65.20
21353;DHT22;10834;52.268;6.770;2022-08-19T14:37:17;26.40;65.20
21353;DHT22;10834;52.268;6.770;2022-08-19T14:40:04;26.40;65.20
21353;DHT22;10834;52.268;6.770;2022-08-19T14:42:50;26.40;65.10
21353;DHT22;10834;52.268;6.770;2022-08-19T14:45:38;26.40;65.20
21353;DHT22;10834;52.268;6.770;2022-08-19T14:48:24;26.40;65.10
21353;DHT22;10834;52.268;6.770;2022-08-19T14:51:11;26.40;65.20
21353;DHT22;10834;52.268;6.770;2022-08-19T14:53:57;26.40;65.10
21353;DHT22;10834;52.268;6.770;2022-08-19T14:56:43;26.40;65.10
21353;DHT22;10834;52.268;6.770;2022-08-19T14:59:30;26.30;65.10
21353;DHT22;10834;52.268;6.770;2022-08-19T15:02:16;26.30;65.10
21353;DHT22;10834;52.268;6.770;2022-08-19T15:05:02;26.30;65.10
21353;DHT22;10834;52.268;6.770;2022-08-19T15:07:48;26.40;65.20
21353;DHT22;10834;52.268;6.770;2022-08-19T15:10:35;26.30;65.10
21353;DHT22;10834;52.268;6.770;2022-08-19T15:13:21;26.30;65.10
21353;DHT22;10834;52.268;6.770;2022-08-19T15:16:07;26.30;65.10
21353;DHT22;10834;52.268;6.770;2022-08-19T15:18:58;26.30;65.10
21353;DHT22;10834;52.268;6.770;2022-08-19T15:21:45;26.30;65.20
21353;DHT22;10834;52.268;6.770;2022-08-19T15:24:31;26.20;65.20
21353;DHT22;10834;52.268;6.770;2022-08-19T15:27:17;26.20;65.20
21353;DHT22;10834;52.268;6.770;2022-08-19T15:30:04;26.30;65.20
21353;DHT22;10834;52.268;6.770;2022-08-19T15:32:50;26.20;65.20
21353;DHT22;10834;52.268;6.770;2022-08-19T15:35:38;26.20;65.30
21353;DHT22;10834;52.268;6.770;2022-08-19T15:38:25;26.20;65.30
21353;DHT22;10834;52.268;6.770;2022-08-19T15:41:21;26.20;65.40
21353;DHT22;10834;52.268;6.770;2022-08-19T15:44:16;26.20;65.50
21353;DHT22;10834;52.268;6.770;2022-08-19T15:47:03;26.20;65.70
21353;DHT22;10834;52.268;6.770;2022-08-19T15:49:49;26.10;65.70
21353;DHT22;10834;52.268;6.770;2022-08-19T15:52:35;26.10;65.80
21353;DHT22;10834;52.268;6.770;2022-08-19T15:55:25;26.10;66.00
21353;DHT22;10834;52.268;6.770;2022-08-19T15:58:13;26.10;66.00
21353;DHT22;10834;52.268;6.770;2022-08-19T16:01:18;26.10;66.00
21353;DHT22;10834;52.268;6.770;2022-08-19T16:04:23;26.10;65.90
21353;DHT22;10834;52.268;6.770;2022-08-19T16:07:28;26.10;65.80
21353;DHT22;10834;52.268;6.770;2022-08-19T16:10:14;26.10;65.90
21353;DHT22;10834;52.268;6.770;2022-08-19T16:13:00;26.10;66.00
21353;DHT22;10834;52.268;6.770;2022-08-19T16:15:47;26.10;66.00
21353;DHT22;10834;52.268;6.770;2022-08-19T16:18:33;26.00;65.60
21353;DHT22;10834;52.268;6.770;2022-08-19T16:21:24;26.00;65.40
21353;DHT22;10834;52.268;6.770;2022-08-19T16:24:13;26.00;65.50
21353;DHT22;10834;52.268;6.770;2022-08-19T16:26:59;26.00;65.50
21353;DHT22;10834;52.268;6.770;2022-08-19T16:29:46;25.90;65.50
21353;DHT22;10834;52.268;6.770;2022-08-19T16:32:32;25.90;65.50
21353;DHT22;10834;52.268;6.770;2022-08-19T16:35:19;26.00;65.70
21353;DHT22;10834;52.268;6.770;2022-08-19T16:38:05;25.90;65.70
21353;DHT22;10834;52.268;6.770;2022-08-19T16:40:51;25.90;65.80
21353;DHT22;10834;52.268;6.770;2022-08-19T16:43:41;25.90;66.20
21353;DHT22;10834;52.268;6.770;2022-08-19T16:46:27;25.90;66.40
21353;DHT22;10834;52.268;6.770;2022-08-19T16:49:14;25.90;66.30
21353;DHT22;10834;52.268;6.770;2022-08-19T16:52:00;25.80;66.40
21353;DHT22;10834;52.268;6.770;2022-08-19T16:54:47;25.80;66.50
21353;DHT22;10834;52.268;6.770;2022-08-19T16:57:34;25.80;66.70
21353;DHT22;10834;52.268;6.770;2022-08-19T17:00:21;25.80;66.80
21353;DHT22;10834;52.268;6.770;2022-08-19T17:03:08;25.80;67.00
21353;DHT22;10834;52.268;6.770;2022-08-19T17:05:59;25.70;67.20
21353;DHT22;10834;52.268;6.770;2022-08-19T17:08:50;25.70;67.40
21353;DHT22;10834;52.268;6.770;2022-08-19T17:11:36;25.70;67.60
21353;DHT22;10834;52.268;6.770;2022-08-19T17:14:22;25.70;68.60
21353;DHT22;10834;52.268;6.770;2022-08-19T17:17:08;25.70;68.30
21353;DHT22;10834;52.268;6.770;2022-08-19T17:19:58;25.70;68.60
21353;DHT22;10834;52.268;6.770;2022-08-19T17:22:45;25.70;69.10
21353;DHT22;10834;52.268;6.770;2022-08-19T17:25:31;25.70;69.50
21353;DHT22;10834;52.268;6.770;2022-08-19T17:28:21;25.70;69.90
21353;DHT22;10834;52.268;6.770;2022-08-19T17:31:08;25.70;70.80
21353;DHT22;10834;52.268;6.770;2022-08-19T17:33:54;25.60;70.30
21353;DHT22;10834;52.268;6.770;2022-08-19T17:36:42;25.60;70.40
21353;DHT22;10834;52.268;6.770;2022-08-19T17:39:28;25.60;70.60
21353;DHT22;10834;52.268;6.770;2022-08-19T17:42:14;25.60;70.80
21353;DHT22;10834;52.268;6.770;2022-08-19T17:45:01;25.60;71.10
21353;DHT22;10834;52.268;6.770;2022-08-19T17:47:47;25.50;71.40
21353;DHT22;10834;52.268;6.770;2022-08-19T17:50:34;25.50;71.60
21353;DHT22;10834;52.268;6.770;2022-08-19T17:53:20;25.50;71.70